Time;durP1;ratioP1;P1;durP2;ratioP2;P2;SDS_P1;SDS_P2;PMS_P1;PMS_P2;Temp;Humidity;BMP_temperature;BMP_pressure;BME280_temperature;BME280_humidity;BME280_pressure;Samples;Min_cycle;Max_cycle;Signal;HPM_P1;HPM_P2
2020/12/15 00:02:25;;;;;;;7.00;5.90;;;8.90;99.90;;;;;;5054150;28;20203;-72
2020/12/15 00:04:52;;;;;;;6.57;5.60;;;8.80;99.90;;;;;;5038455;28;20219;-71
2020/12/15 00:07:20;;;;;;;6.85;5.43;;;8.80;99.90;;;;;;5033775;28;20203;-73
2020/12/15 00:09:47;;;;;;;6.15;5.55;;;8.90;99.90;;;;;;5033366;28;20230;-73
2020/12/15 00:12:14;;;;;;;5.10;4.60;;;8.90;99.90;;;;;;5033657;28;20204;-73
2020/12/15 00:14:41;;;;;;;5.10;4.60;;;8.80;99.90;;;;;;5033996;28;20594;-74
2020/12/15 00:17:08;;;;;;;9.07;5.30;;;8.90;99.90;;;;;;5034321;28;20207;-74
2020/12/15 00:19:34;;;;;;;5.45;4.95;;;8.90;99.90;;;;;;5033952;28;20211;-74
2020/12/15 00:22:01;;;;;;;5.45;4.75;;;8.90;99.90;;;;;;5034331;28;20203;-75
2020/12/15 00:24:28;;;;;;;7.85;5.78;;;8.90;99.90;;;;;;5037157;28;20203;-72
2020/12/15 00:26:56;;;;;;;6.97;5.32;;;8.90;99.90;;;;;;5037874;28;20263;-72
2020/12/15 00:29:22;;;;;;;5.15;4.65;;;8.90;99.90;;;;;;5040705;28;20681;-73
2020/12/15 00:31:51;;;;;;;4.75;4.30;;;8.90;99.90;;;;;;5053835;28;20202;-72
2020/12/15 00:34:18;;;;;;;5.32;4.82;;;8.90;99.90;;;;;;5056205;28;20196;-73
2020/12/15 00:36:45;;;;;;;5.22;4.72;;;8.90;99.90;;;;;;5053325;28;20222;-75
2020/12/15 00:39:12;;;;;;;5.22;4.72;;;8.90;99.90;;;;;;5052899;28;20207;-73
2020/12/15 00:41:39;;;;;;;9.57;4.53;;;8.90;99.90;;;;;;5053291;28;20209;-72
2020/12/15 00:44:07;;;;;;;5.57;5.00;;;8.90;99.90;;;;;;5053378;28;20253;-74
2020/12/15 00:46:33;;;;;;;5.90;5.10;;;8.90;99.90;;;;;;5053127;28;20227;-72
2020/12/15 00:49:00;;;;;;;6.63;4.40;;;8.90;99.90;;;;;;5051916;28;20204;-74
2020/12/15 00:51:27;;;;;;;4.43;3.97;;;9.00;99.90;;;;;;5045756;28;20204;-74
2020/12/15 00:53:53;;;;;;;5.15;4.65;;;8.90;99.90;;;;;;5037812;28;20196;-76
2020/12/15 00:56:20;;;;;;;6.43;4.90;;;8.90;99.90;;;;;;5033114;28;20231;-72
2020/12/15 00:58:46;;;;;;;6.38;4.88;;;8.90;99.90;;;;;;5032868;28;20223;-74
2020/12/15 01:01:14;;;;;;;5.30;4.35;;;8.90;99.90;;;;;;5033444;28;20200;-74
2020/12/15 01:03:41;;;;;;;8.52;5.00;;;8.90;99.90;;;;;;5033447;28;20223;-72
2020/12/15 01:06:08;;;;;;;5.65;4.65;;;8.90;99.90;;;;;;5032729;28;20655;-74
2020/12/15 01:08:35;;;;;;;5.90;4.75;;;9.00;99.90;;;;;;5032688;28;20212;-75
2020/12/15 01:11:01;;;;;;;5.57;4.30;;;9.00;99.90;;;;;;5033751;28;20566;-71
2020/12/15 01:13:28;;;;;;;6.50;4.30;;;9.00;99.90;;;;;;5033149;28;20589;-73
2020/12/15 01:15:54;;;;;;;5.03;4.55;;;9.00;99.90;;;;;;5032969;28;20228;-73
2020/12/15 01:18:22;;;;;;;6.68;4.85;;;9.00;99.90;;;;;;5032611;28;20208;-72
2020/12/15 01:20:49;;;;;;;4.43;4.03;;;9.00;99.90;;;;;;5043838;28;20653;-76
2020/12/15 01:23:15;;;;;;;6.15;4.32;;;9.10;99.90;;;;;;5052978;28;20215;-74
2020/12/15 01:25:42;;;;;;;7.97;4.47;;;9.10;99.90;;;;;;5052986;28;20231;-74
2020/12/15 01:28:09;;;;;;;5.57;4.30;;;9.10;99.90;;;;;;5054158;28;20207;-71
2020/12/15 01:30:35;;;;;;;5.13;4.63;;;9.10;99.90;;;;;;5052242;28;20211;-73
2020/12/15 01:33:02;;;;;;;6.78;5.00;;;9.00;99.90;;;;;;5053329;28;20199;-74
2020/12/15 01:35:29;;;;;;;5.00;4.50;;;9.10;99.90;;;;;;5052466;28;20224;-73
2020/12/15 01:37:56;;;;;;;5.43;4.55;;;9.10;99.90;;;;;;5053060;28;20226;-74
2020/12/15 01:40:23;;;;;;;5.97;5.38;;;9.10;99.90;;;;;;5052406;28;20208;-72
2020/12/15 01:42:49;;;;;;;5.38;4.85;;;9.10;99.90;;;;;;5052809;28;20218;-74
2020/12/15 01:45:16;;;;;;;5.47;4.68;;;9.10;99.90;;;;;;5052407;28;20235;-71
2020/12/15 01:47:43;;;;;;;6.05;5.55;;;9.00;99.90;;;;;;5052848;28;20188;-73
2020/12/15 01:50:09;;;;;;;6.60;5.15;;;9.00;99.90;;;;;;5052251;28;20203;-76
2020/12/15 01:52:37;;;;;;;6.97;6.28;;;8.90;99.90;;;;;;5048064;28;20212;-72
2020/12/15 01:55:05;;;;;;;9.30;6.32;;;8.80;99.90;;;;;;5034515;28;20243;-70
2020/12/15 01:57:32;;;;;;;8.63;5.82;;;8.80;99.90;;;;;;5042617;28;20232;-69
2020/12/15 01:59:59;;;;;;;5.35;4.85;;;8.80;99.90;;;;;;5034551;28;20211;-75
2020/12/15 02:02:25;;;;;;;5.72;5.20;;;8.90;99.90;;;;;;5033285;28;20596;-73
2020/12/15 02:04:52;;;;;;;5.80;5.20;;;8.80;99.90;;;;;;5032332;28;20228;-72
2020/12/15 02:07:19;;;;;;;5.70;5.10;;;8.80;99.90;;;;;;5033288;28;20206;-75
2020/12/15 02:09:47;;;;;;;7.65;6.20;;;8.70;99.90;;;;;;5036995;28;20208;-71
2020/12/15 02:12:13;;;;;;;6.97;5.70;;;8.80;99.90;;;;;;5036867;28;20200;-72
2020/12/15 02:14:44;;;;;;;5.40;4.85;;;8.80;99.90;;;;;;5032460;28;20200;-70
2020/12/15 02:17:13;;;;;;;6.78;5.68;;;8.80;99.90;;;;;;5033441;28;20286;-74
2020/12/15 02:19:39;;;;;;;8.52;5.88;;;8.80;99.90;;;;;;5036913;28;20243;-74
2020/12/15 02:22:07;;;;;;;6.43;5.63;;;8.80;99.90;;;;;;5055461;28;20547;-73
2020/12/15 02:24:34;;;;;;;6.53;5.93;;;8.80;99.90;;;;;;5055779;28;20199;-74
2020/12/15 02:27:01;;;;;;;5.10;4.70;;;8.80;99.90;;;;;;5056104;28;20211;-75
2020/12/15 02:29:27;;;;;;;8.20;5.55;;;8.80;99.90;;;;;;5055430;28;20199;-73
2020/12/15 02:31:54;;;;;;;7.80;5.93;;;8.80;99.90;;;;;;5055806;28;20192;-75
2020/12/15 02:34:20;;;;;;;6.38;5.78;;;8.80;99.90;;;;;;5055853;28;20586;-73
2020/12/15 02:36:47;;;;;;;6.65;5.22;;;8.80;99.90;;;;;;5055548;28;20361;-72
2020/12/15 02:39:17;;;;;;;5.75;5.25;;;8.80;99.90;;;;;;5055091;28;20200;-71
2020/12/15 02:41:43;;;;;;;6.90;6.00;;;8.80;99.90;;;;;;5055947;28;20210;-71
2020/12/15 02:44:10;;;;;;;7.68;6.88;;;8.80;99.90;;;;;;5052526;28;20289;-74
2020/12/15 02:46:37;;;;;;;6.75;6.15;;;8.80;99.90;;;;;;5055139;28;20588;-74
2020/12/15 02:49:04;;;;;;;6.90;5.15;;;8.80;99.90;;;;;;5054831;28;20201;-72
2020/12/15 02:51:30;;;;;;;7.13;6.22;;;8.90;99.90;;;;;;5054996;28;20206;-71
2020/12/15 02:53:57;;;;;;;7.47;6.25;;;8.90;99.90;;;;;;5039452;28;20213;-72
2020/12/15 02:56:26;;;;;;;6.75;6.15;;;8.80;99.90;;;;;;5035151;28;20231;-72
2020/12/15 02:58:52;;;;;;;6.70;6.03;;;8.80;99.90;;;;;;5036417;28;20202;-72
2020/12/15 03:01:19;;;;;;;5.40;4.93;;;8.90;99.90;;;;;;5041815;28;20195;-74
2020/12/15 03:03:46;;;;;;;9.55;4.82;;;8.90;99.90;;;;;;5035895;28;20577;-73
2020/12/15 03:06:13;;;;;;;8.20;6.75;;;8.90;99.90;;;;;;5034983;28;20227;-74
2020/12/15 03:11:10;;;;;;;7.88;6.15;;;8.80;99.90;;;;;;5053752;28;20238;-75
2020/12/15 03:13:37;;;;;;;8.13;6.90;;;8.80;99.90;;;;;;5056018;28;20184;-74
2020/12/15 03:16:04;;;;;;;7.20;6.20;;;8.70;99.90;;;;;;5054797;28;20223;-75
2020/12/15 03:18:31;;;;;;;6.82;6.22;;;8.70;99.90;;;;;;5054473;28;20204;-71
2020/12/15 03:20:57;;;;;;;7.68;6.72;;;8.80;99.90;;;;;;5054433;28;20199;-74
2020/12/15 03:23:24;;;;;;;7.15;6.50;;;8.70;99.90;;;;;;5054658;28;20204;-73
2020/12/15 03:25:53;;;;;;;7.55;6.85;;;8.70;99.90;;;;;;5054521;28;20236;-70
2020/12/15 03:28:21;;;;;;;7.63;6.93;;;8.70;99.90;;;;;;5054439;28;20243;-75
2020/12/15 03:30:48;;;;;;;7.55;6.55;;;8.70;99.90;;;;;;5054835;28;20658;-71
2020/12/15 03:33:17;;;;;;;6.88;6.15;;;8.70;99.90;;;;;;5055233;28;20254;-72
2020/12/15 03:35:43;;;;;;;7.78;7.00;;;8.70;99.90;;;;;;5054360;28;20704;-74
2020/12/15 03:38:10;;;;;;;8.13;7.32;;;8.70;99.90;;;;;;5063933;28;20239;-70
2020/12/15 03:40:37;;;;;;;8.48;6.90;;;8.70;99.90;;;;;;5056840;28;20213;-73
2020/12/15 03:43:03;;;;;;;11.15;6.68;;;8.70;99.90;;;;;;5054668;28;20214;-72
2020/12/15 03:45:30;;;;;;;8.57;7.63;;;8.70;99.90;;;;;;5054604;28;20231;-74
2020/12/15 03:47:58;;;;;;;7.57;6.97;;;8.70;99.90;;;;;;5054196;28;20211;-73
2020/12/15 03:50:25;;;;;;;10.10;6.43;;;8.60;99.90;;;;;;5053590;28;20558;-73
2020/12/15 03:52:52;;;;;;;8.85;7.20;;;8.70;99.90;;;;;;5054282;28;20721;-73
2020/12/15 03:55:21;;;;;;;6.95;6.25;;;8.70;99.90;;;;;;5054048;28;20227;-74
2020/12/15 03:57:50;;;;;;;7.53;6.80;;;8.60;99.90;;;;;;5054290;28;20642;-74
2020/12/15 04:00:17;;;;;;;7.28;6.47;;;8.60;99.90;;;;;;5053833;28;20240;-75
2020/12/15 04:02:43;;;;;;;8.00;7.22;;;8.70;99.90;;;;;;5053998;28;20207;-75
2020/12/15 04:05:11;;;;;;;9.43;6.40;;;8.70;99.90;;;;;;5053610;28;20238;-73
2020/12/15 04:07:39;;;;;;;10.57;7.70;;;8.70;99.90;;;;;;5053570;28;20203;-74
2020/12/15 04:10:06;;;;;;;9.32;7.82;;;8.60;99.90;;;;;;5053206;28;20222;-74
2020/12/15 04:12:33;;;;;;;10.05;7.00;;;8.70;99.90;;;;;;5054114;28;20560;-72
2020/12/15 04:14:59;;;;;;;9.35;7.50;;;8.70;99.90;;;;;;5053756;28;20272;-74
2020/12/15 04:17:26;;;;;;;8.80;7.63;;;8.70;99.90;;;;;;5057629;28;20226;-71
2020/12/15 04:19:52;;;;;;;7.60;6.90;;;8.80;99.90;;;;;;5058347;28;20210;-72
2020/12/15 04:22:20;;;;;;;8.15;7.38;;;8.80;99.90;;;;;;5057219;28;20225;-74
2020/12/15 04:24:47;;;;;;;8.38;7.57;;;8.80;99.90;;;;;;5053448;28;20227;-75
2020/12/15 04:27:14;;;;;;;8.02;7.25;;;8.70;99.90;;;;;;5053760;28;20260;-73
2020/12/15 04:29:40;;;;;;;9.93;8.20;;;8.80;99.90;;;;;;5052843;28;20294;-73
2020/12/15 04:32:07;;;;;;;9.25;8.35;;;8.70;99.90;;;;;;5053617;28;20214;-70
2020/12/15 04:34:34;;;;;;;9.05;8.15;;;8.70;99.90;;;;;;5052906;28;20218;-72
2020/12/15 04:37:00;;;;;;;8.85;8.00;;;8.70;99.90;;;;;;5052926;28;20224;-73
2020/12/15 04:39:28;;;;;;;9.70;8.80;;;8.70;99.90;;;;;;5052664;28;20214;-73
2020/12/15 04:41:54;;;;;;;8.32;7.53;;;8.60;99.90;;;;;;5053229;28;20203;-71
2020/12/15 04:44:21;;;;;;;10.35;8.55;;;8.60;99.90;;;;;;5053267;28;20570;-72
2020/12/15 04:46:56;;;;;;;9.80;8.15;;;8.50;99.90;;;;;;5053274;28;20227;-72
2020/12/15 04:49:27;;;;;;;9.50;8.30;;;8.50;99.90;;;;;;5051459;28;20246;-75
2020/12/15 04:52:01;;;;;;;8.43;7.45;;;8.50;99.90;;;;;;5052837;28;20293;-73
2020/12/15 04:54:33;;;;;;;9.13;8.23;;;8.40;99.90;;;;;;5032939;28;20218;-72
2020/12/15 04:57:02;;;;;;;8.77;7.80;;;8.40;99.90;;;;;;5033419;28;20239;-74
2020/12/15 04:59:33;;;;;;;9.85;8.95;;;8.40;99.90;;;;;;5032642;28;20200;-73
2020/12/15 05:02:02;;;;;;;10.82;9.35;;;8.40;99.90;;;;;;5032840;28;20210;-72
2020/12/15 05:04:36;;;;;;;9.32;8.15;;;8.40;99.90;;;;;;5045086;28;20557;-72
2020/12/15 05:07:06;;;;;;;9.15;8.30;;;8.30;99.90;;;;;;5052662;28;20203;-72
2020/12/15 05:09:34;;;;;;;7.78;7.07;;;8.30;99.90;;;;;;5052682;28;20219;-75
2020/12/15 05:12:01;;;;;;;10.43;7.90;;;8.40;99.90;;;;;;5053274;28;20595;-74
2020/12/15 05:14:28;;;;;;;7.55;6.85;;;8.40;99.90;;;;;;5052648;28;20265;-76
2020/12/15 05:16:55;;;;;;;8.93;7.70;;;8.40;99.90;;;;;;5052995;28;20282;-74
2020/12/15 05:19:22;;;;;;;9.18;8.25;;;8.40;99.90;;;;;;5052608;28;20247;-74
2020/12/15 05:21:58;;;;;;;8.38;7.57;;;8.40;99.90;;;;;;5053194;28;20572;-73
2020/12/15 05:24:27;;;;;;;8.93;8.02;;;8.40;99.90;;;;;;5052601;28;20206;-73
2020/12/15 05:26:56;;;;;;;7.78;7.05;;;8.50;99.90;;;;;;5052998;28;20205;-72
2020/12/15 05:29:23;;;;;;;10.88;7.65;;;8.50;99.90;;;;;;5052458;28;20206;-72
2020/12/15 05:31:50;;;;;;;9.18;7.65;;;8.50;99.90;;;;;;5053243;28;20249;-72
2020/12/15 05:34:22;;;;;;;11.85;8.60;;;8.50;99.90;;;;;;5052120;28;20210;-75
2020/12/15 05:36:55;;;;;;;8.88;7.97;;;8.40;99.90;;;;;;5052323;28;20228;-73
2020/12/15 05:39:22;;;;;;;8.43;7.60;;;8.40;99.90;;;;;;5051705;28;20265;-72
2020/12/15 05:42:00;;;;;;;8.70;7.82;;;8.50;99.90;;;;;;5052495;28;20628;-73
2020/12/15 05:44:28;;;;;;;8.35;7.55;;;8.60;99.90;;;;;;5052614;28;20190;-72
2020/12/15 05:47:00;;;;;;;6.72;6.03;;;8.50;99.90;;;;;;5052565;28;20658;-75
2020/12/15 05:49:29;;;;;;;9.35;8.35;;;8.60;99.90;;;;;;5051969;28;20292;-75
2020/12/15 05:51:56;;;;;;;7.90;7.10;;;8.60;99.90;;;;;;5053021;28;20305;-75
2020/12/15 05:54:23;;;;;;;9.25;7.22;;;8.60;99.90;;;;;;5056167;28;20202;-74
2020/12/15 05:57:02;;;;;;;7.22;6.53;;;8.60;99.90;;;;;;5056139;28;20272;-77
2020/12/15 05:59:29;;;;;;;8.63;7.78;;;8.70;99.90;;;;;;5055949;28;20195;-76
2020/12/15 06:02:04;;;;;;;8.85;7.40;;;8.60;99.90;;;;;;5055967;28;20207;-74
2020/12/15 06:04:31;;;;;;;8.73;7.80;;;8.60;99.90;;;;;;5047970;28;20194;-72
2020/12/15 06:07:00;;;;;;;8.98;7.72;;;8.70;99.90;;;;;;5056159;28;20199;-73
2020/12/15 06:09:28;;;;;;;10.35;8.63;;;8.70;99.90;;;;;;5055430;28;20211;-76
2020/12/15 06:11:55;;;;;;;7.75;7.05;;;8.70;99.90;;;;;;5056034;28;20196;-74
2020/12/15 06:14:25;;;;;;;9.23;8.43;;;8.80;99.90;;;;;;5055579;28;20211;-76
2020/12/15 06:16:53;;;;;;;8.80;7.97;;;8.90;99.90;;;;;;5055888;28;20227;-77
2020/12/15 06:19:21;;;;;;;8.20;7.50;;;9.00;99.90;;;;;;5055353;28;20203;-77
2020/12/15 06:21:51;;;;;;;9.32;6.85;;;9.00;99.90;;;;;;5056121;28;20555;-75
2020/12/15 06:24:26;;;;;;;9.40;8.10;;;9.00;99.90;;;;;;5055567;28;20215;-76
2020/12/15 06:27:02;;;;;;;8.13;7.03;;;9.00;99.90;;;;;;5055748;28;20668;-76
2020/12/15 06:29:31;;;;;;;9.60;8.70;;;9.00;99.90;;;;;;5055312;28;20233;-77
2020/12/15 06:31:59;;;;;;;8.45;7.53;;;9.00;99.90;;;;;;5055595;28;20225;-76
2020/12/15 06:34:27;;;;;;;7.85;7.05;;;9.00;99.90;;;;;;5055293;28;20299;-74
2020/12/15 06:36:55;;;;;;;9.25;7.20;;;9.00;99.90;;;;;;5055411;28;20279;-75
2020/12/15 06:39:23;;;;;;;8.15;7.32;;;9.00;99.90;;;;;;5054653;28;20246;-75
2020/12/15 06:41:58;;;;;;;7.72;6.93;;;9.10;99.90;;;;;;5054592;28;20206;-73
2020/12/15 06:44:33;;;;;;;8.52;7.70;;;9.20;99.90;;;;;;5055308;28;20229;-73
2020/12/15 06:47:01;;;;;;;10.35;9.15;;;9.20;99.90;;;;;;5054550;28;20260;-74
2020/12/15 06:49:38;;;;;;;9.23;8.30;;;9.00;99.90;;;;;;5054311;28;20231;-74
2020/12/15 06:52:07;;;;;;;10.68;9.57;;;9.00;99.90;;;;;;5054181;28;20210;-72
2020/12/15 06:54:36;;;;;;;9.60;8.68;;;9.00;99.90;;;;;;5054399;28;20211;-72
2020/12/15 06:57:05;;;;;;;8.65;7.85;;;9.00;99.90;;;;;;5053819;28;20224;-72
2020/12/15 06:59:36;;;;;;;10.65;9.55;;;9.00;99.90;;;;;;5053626;28;20203;-73
2020/12/15 07:02:13;;;;;;;10.57;9.30;;;9.10;99.90;;;;;;5054708;28;20235;-72
2020/12/15 07:04:43;;;;;;;19.25;10.60;;;9.10;99.90;;;;;;5057293;28;20727;-73
2020/12/15 07:07:10;;;;;;;9.85;8.85;;;9.10;99.90;;;;;;5055737;28;20192;-73
2020/12/15 07:09:37;;;;;;;9.82;8.90;;;9.00;99.90;;;;;;5054007;28;20238;-73
2020/12/15 07:12:10;;;;;;;10.23;9.23;;;8.90;99.90;;;;;;5054394;28;20551;-71
2020/12/15 07:14:37;;;;;;;11.57;10.38;;;8.90;99.90;;;;;;5054387;28;20204;-72
2020/12/15 07:17:06;;;;;;;9.77;8.75;;;8.80;99.90;;;;;;5054534;28;20578;-72
2020/12/15 07:19:33;;;;;;;12.75;9.05;;;8.80;99.90;;;;;;5053509;28;20685;-72
2020/12/15 07:21:59;;;;;;;11.77;10.57;;;8.80;99.90;;;;;;5054196;28;20218;-73
2020/12/15 07:24:27;;;;;;;10.52;9.43;;;8.80;99.90;;;;;;5054443;28;20287;-72
2020/12/15 07:26:54;;;;;;;12.00;9.70;;;8.90;99.90;;;;;;5054365;28;20207;-72
2020/12/15 07:29:21;;;;;;;11.43;9.43;;;8.80;99.90;;;;;;5053375;28;20526;-72
2020/12/15 07:31:48;;;;;;;10.15;9.15;;;8.70;99.90;;;;;;5053652;28;20280;-72
2020/12/15 07:34:17;;;;;;;15.50;11.43;;;8.70;99.90;;;;;;5054834;28;20248;-73
2020/12/15 07:36:47;;;;;;;12.32;11.18;;;8.70;99.90;;;;;;5055432;28;20237;-73
2020/12/15 07:39:15;;;;;;;12.38;10.70;;;8.70;99.90;;;;;;5052983;28;20290;-72
2020/12/15 07:41:56;;;;;;;15.00;12.40;;;8.80;99.90;;;;;;5053873;28;20613;-72
2020/12/15 07:44:22;;;;;;;16.77;11.32;;;8.60;99.90;;;;;;5053685;28;20221;-72
2020/12/15 07:46:51;;;;;;;12.82;11.15;;;8.70;99.90;;;;;;5053739;28;20224;-72
2020/12/15 07:49:17;;;;;;;11.50;10.30;;;8.80;99.90;;;;;;5052889;28;20621;-72
2020/12/15 07:51:44;;;;;;;12.23;11.00;;;8.70;99.90;;;;;;5053340;28;20257;-72
2020/12/15 07:54:11;;;;;;;16.33;11.95;;;8.70;99.90;;;;;;5053512;28;20199;-72
2020/12/15 07:56:38;;;;;;;14.02;11.02;;;8.80;99.90;;;;;;5053400;28;20701;-72
2020/12/15 07:59:11;;;;;;;14.35;12.85;;;8.70;99.90;;;;;;5052289;28;20268;-72
2020/12/15 08:01:38;;;;;;;14.88;13.38;;;8.80;99.90;;;;;;5052788;28;20206;-71
2020/12/15 08:04:07;;;;;;;12.55;11.32;;;8.80;99.90;;;;;;5052889;28;20211;-72
2020/12/15 08:06:36;;;;;;;16.27;13.00;;;8.80;99.90;;;;;;5053314;28;20681;-73
2020/12/15 08:09:05;;;;;;;14.23;11.73;;;8.90;99.90;;;;;;5052754;28;20265;-71
2020/12/15 08:11:32;;;;;;;13.02;11.63;;;9.00;99.90;;;;;;5053615;28;20688;-71
2020/12/15 08:14:01;;;;;;;16.58;13.73;;;9.00;99.90;;;;;;5053224;28;20203;-72
2020/12/15 08:16:28;;;;;;;14.50;10.10;;;9.00;99.90;;;;;;5052505;28;20235;-72
2020/12/15 08:18:59;;;;;;;11.43;10.38;;;9.00;99.90;;;;;;5052723;28;20212;-72
2020/12/15 08:21:40;;;;;;;12.88;10.98;;;9.10;99.90;;;;;;5052982;28;20219;-72
2020/12/15 08:24:10;;;;;;;11.35;10.15;;;9.20;99.90;;;;;;5052903;28;20207;-72
2020/12/15 08:26:38;;;;;;;16.92;11.98;;;9.20;99.90;;;;;;5053108;28;20238;-72
2020/12/15 08:29:08;;;;;;;12.73;9.68;;;9.10;99.90;;;;;;5052600;28;20208;-72
2020/12/15 08:31:35;;;;;;;12.70;10.43;;;9.20;99.90;;;;;;5053014;28;20207;-72
2020/12/15 08:34:02;;;;;;;15.77;11.57;;;9.30;99.90;;;;;;5052945;28;20356;-72
2020/12/15 08:36:30;;;;;;;10.93;8.98;;;9.30;99.90;;;;;;5052682;28;20277;-72
2020/12/15 08:38:58;;;;;;;12.80;11.50;;;9.30;99.90;;;;;;5052270;28;20203;-73
2020/12/15 08:41:25;;;;;;;13.40;11.25;;;9.50;99.90;;;;;;5052977;28;20216;-73
2020/12/15 08:43:52;;;;;;;13.05;9.88;;;9.40;99.90;;;;;;5053482;28;20214;-72
2020/12/15 08:46:20;;;;;;;11.38;10.18;;;9.40;99.90;;;;;;5053357;28;20224;-74
2020/12/15 08:48:46;;;;;;;13.30;10.23;;;9.50;99.90;;;;;;5052150;28;20192;-72
2020/12/15 08:51:15;;;;;;;11.93;10.77;;;9.50;99.90;;;;;;5051852;28;20602;-72
2020/12/15 08:53:44;;;;;;;12.57;11.40;;;9.40;99.90;;;;;;5052821;28;20253;-72
2020/12/15 08:56:15;;;;;;;11.43;10.20;;;9.50;99.90;;;;;;5052244;28;20688;-72
2020/12/15 08:58:42;;;;;;;11.10;9.77;;;9.60;99.90;;;;;;5051764;28;20810;-74
2020/12/15 09:01:10;;;;;;;11.15;9.98;;;9.70;99.90;;;;;;5052511;28;20230;-72
2020/12/15 09:03:45;;;;;;;10.52;9.50;;;9.80;99.90;;;;;;5052457;28;20211;-72
2020/12/15 09:06:11;;;;;;;11.55;9.25;;;9.80;99.90;;;;;;5052085;28;20235;-72
2020/12/15 09:43:38;;;;;;;9.05;8.32;;;10.40;99.90;;;;;;4906560;29;20217;-84
2020/12/15 09:49:26;;;;;;;9.32;8.52;;;10.40;99.90;;;;;;4981669;28;20536;-82
2020/12/15 09:51:53;;;;;;;11.18;10.07;;;10.40;99.90;;;;;;5004425;28;20224;-83
2020/12/15 09:54:25;;;;;;;10.43;9.50;;;10.30;99.90;;;;;;5019204;28;20246;-82
2020/12/15 09:57:34;;;;;;;11.20;10.10;;;10.30;99.90;;;;;;5069797;28;20218;-83
2020/12/15 10:00:09;;;;;;;10.02;9.02;;;10.20;99.90;;;;;;5067626;28;20660;-83
2020/12/15 10:03:05;;;;;;;11.10;9.85;;;10.20;99.90;;;;;;5086070;28;20680;-83
2020/12/15 10:13:13;;;;;;;10.02;9.02;;;10.20;99.90;;;;;;5091461;28;20237;-82
2020/12/15 10:27:19;;;;;;;11.48;9.13;;;10.60;99.90;;;;;;5001881;28;20213;-83
2020/12/15 10:36:57;;;;;;;10.23;9.25;;;10.90;99.90;;;;;;4968221;28;20240;-84
2020/12/15 10:50:35;;;;;;;12.10;10.90;;;10.80;99.90;;;;;;4930083;28;20267;-82
2020/12/15 11:13:28;;;;;;;10.02;9.02;;;11.60;99.90;;;;;;5050508;28;20216;-83
2020/12/15 11:19:29;;;;;;;14.25;12.30;;;11.60;99.90;;;;;;5015552;28;20187;-81
2020/12/15 11:21:55;;;;;;;10.82;9.73;;;11.50;99.90;;;;;;5075433;28;20204;-82
2020/12/15 11:24:22;;;;;;;12.30;10.82;;;11.50;99.90;;;;;;5097868;28;20180;-82
2020/12/15 11:26:51;;;;;;;11.43;10.32;;;11.50;99.90;;;;;;5098152;28;20176;-81
2020/12/15 11:29:18;;;;;;;10.18;9.18;;;11.50;99.90;;;;;;5097219;28;20286;-82
2020/12/15 11:31:49;;;;;;;9.85;8.70;;;11.50;99.90;;;;;;5098013;28;20213;-81
2020/12/15 11:34:16;;;;;;;13.05;10.10;;;11.50;99.90;;;;;;5097628;28;20220;-82
2020/12/15 11:36:43;;;;;;;10.45;9.40;;;11.50;99.90;;;;;;5098128;28;20192;-81
2020/12/15 11:39:10;;;;;;;10.60;9.50;;;11.50;99.90;;;;;;5092395;28;20248;-82
2020/12/15 11:41:38;;;;;;;10.20;9.20;;;11.60;99.90;;;;;;5089778;28;20599;-83
2020/12/15 11:44:06;;;;;;;11.05;10.00;;;11.60;99.90;;;;;;5090531;28;20223;-82
2020/12/15 11:46:33;;;;;;;10.90;9.80;;;11.70;99.90;;;;;;5089443;28;20221;-83
2020/12/15 11:48:59;;;;;;;10.80;9.75;;;11.60;99.90;;;;;;5084674;28;20212;-83
2020/12/15 11:51:26;;;;;;;11.70;9.85;;;11.60;99.90;;;;;;5084065;28;20180;-83
2020/12/15 11:53:52;;;;;;;11.45;10.25;;;11.60;99.90;;;;;;5084500;28;20234;-83
2020/12/15 11:56:19;;;;;;;12.05;10.85;;;11.50;99.90;;;;;;5085077;28;20215;-84
2020/12/15 11:58:46;;;;;;;11.02;9.93;;;11.60;99.90;;;;;;5084164;28;20235;-84
2020/12/15 12:01:14;;;;;;;11.30;10.02;;;11.60;99.90;;;;;;5083561;28;20269;-83
2020/12/15 12:03:41;;;;;;;11.55;10.35;;;11.60;99.90;;;;;;5084211;28;20223;-83
2020/12/15 12:06:08;;;;;;;13.07;9.85;;;11.60;99.90;;;;;;5084101;28;20226;-82
2020/12/15 12:08:34;;;;;;;13.25;10.65;;;11.60;99.90;;;;;;5083390;28;20283;-85
2020/12/15 12:11:01;;;;;;;11.05;9.95;;;11.70;99.90;;;;;;5083388;28;20234;-84
2020/12/15 12:13:28;;;;;;;11.10;10.10;;;11.60;99.90;;;;;;5083822;28;20229;-83
2020/12/15 12:15:54;;;;;;;12.40;11.02;;;11.50;99.90;;;;;;5085663;28;20195;-82
2020/12/15 12:18:22;;;;;;;12.73;9.90;;;11.60;99.90;;;;;;5085340;28;20207;-83
2020/12/15 12:20:48;;;;;;;11.38;10.38;;;11.70;99.90;;;;;;5094645;28;20185;-82
2020/12/15 12:23:15;;;;;;;12.32;11.23;;;11.70;99.90;;;;;;5082128;28;20264;-84
2020/12/15 12:25:41;;;;;;;13.98;9.48;;;11.80;99.90;;;;;;5083986;28;20224;-83
2020/12/15 12:28:08;;;;;;;11.60;10.40;;;11.80;99.90;;;;;;5093743;28;20231;-83
2020/12/15 12:30:35;;;;;;;10.93;9.93;;;11.80;99.90;;;;;;5082572;28;20203;-83
2020/12/15 12:33:01;;;;;;;11.70;10.55;;;11.70;99.90;;;;;;5081688;28;20282;-84
2020/12/15 12:35:29;;;;;;;10.95;9.80;;;11.70;99.90;;;;;;5069855;28;20228;-85
2020/12/15 12:37:56;;;;;;;13.50;10.40;;;11.70;99.90;;;;;;5062542;28;20205;-84
2020/12/15 12:40:22;;;;;;;12.93;10.85;;;11.80;99.90;;;;;;5061698;28;20260;-82
2020/12/15 12:42:50;;;;;;;13.88;12.50;;;11.80;99.90;;;;;;5063951;28;20221;-83
2020/12/15 12:45:16;;;;;;;12.85;11.07;;;11.70;99.90;;;;;;5061240;28;20586;-83
2020/12/15 12:47:43;;;;;;;13.60;12.27;;;11.70;99.90;;;;;;5060510;28;20567;-84
2020/12/15 12:50:09;;;;;;;13.07;11.82;;;11.80;99.90;;;;;;5065192;28;20235;-83
2020/12/15 12:52:37;;;;;;;11.93;10.77;;;11.80;99.90;;;;;;5076963;28;20210;-82
2020/12/15 12:55:05;;;;;;;13.20;10.10;;;11.80;99.90;;;;;;5063135;28;20596;-83
2020/12/15 12:57:32;;;;;;;13.70;12.40;;;11.70;99.90;;;;;;5066342;28;20224;-83
2020/12/15 12:59:58;;;;;;;11.27;10.18;;;11.70;99.90;;;;;;5065036;28;20214;-82
2020/12/15 13:02:25;;;;;;;16.55;14.85;;;11.80;99.90;;;;;;5064224;28;20236;-81
2020/12/15 13:04:51;;;;;;;18.50;15.75;;;11.70;99.90;;;;;;5063452;28;20209;-85
2020/12/15 13:07:18;;;;;;;13.38;10.88;;;11.70;99.90;;;;;;5060404;28;20232;-83
2020/12/15 13:09:45;;;;;;;13.30;11.90;;;11.80;99.90;;;;;;5060287;28;20707;-83
2020/12/15 13:12:12;;;;;;;16.45;13.20;;;11.80;99.90;;;;;;5060318;28;20219;-83
2020/12/15 13:14:39;;;;;;;13.25;11.98;;;11.70;99.90;;;;;;5061477;28;20210;-84
2020/12/15 13:17:07;;;;;;;12.73;11.43;;;11.80;99.90;;;;;;5061012;28;20209;-83
2020/12/15 13:19:33;;;;;;;15.77;12.27;;;11.80;99.90;;;;;;5061329;28;20205;-83
2020/12/15 13:22:00;;;;;;;13.48;12.15;;;11.80;99.90;;;;;;5061135;28;20220;-83
2020/12/15 13:24:27;;;;;;;18.35;12.45;;;11.70;99.90;;;;;;5061385;28;20199;-83
2020/12/15 13:26:54;;;;;;;14.63;13.00;;;11.60;99.90;;;;;;5063821;28;20205;-81
2020/12/15 13:29:21;;;;;;;18.80;16.85;;;11.40;99.90;;;;;;5065688;28;20265;-81
2020/12/15 13:31:47;;;;;;;21.92;15.38;;;11.40;99.90;;;;;;5059554;28;20627;-84
2020/12/15 13:34:14;;;;;;;19.23;16.60;;;11.40;99.90;;;;;;5062028;28;20226;-83
2020/12/15 13:36:41;;;;;;;20.63;18.42;;;11.40;99.90;;;;;;5065292;28;20205;-83
2020/12/15 13:39:08;;;;;;;18.13;16.25;;;11.40;99.90;;;;;;5064554;28;20199;-83
2020/12/15 13:41:34;;;;;;;18.92;17.02;;;11.30;99.90;;;;;;5064088;28;20615;-83
2020/12/15 13:44:02;;;;;;;17.98;14.25;;;11.50;99.90;;;;;;5058852;28;20285;-83
2020/12/15 13:46:29;;;;;;;12.98;11.75;;;11.50;99.90;;;;;;5063777;28;20234;-84
2020/12/15 13:48:56;;;;;;;15.02;13.20;;;11.50;99.90;;;;;;5067015;28;20240;-81
2020/12/15 13:51:23;;;;;;;17.55;14.35;;;11.50;99.90;;;;;;5068763;28;20199;-83
2020/12/15 13:53:49;;;;;;;18.50;15.32;;;11.50;99.90;;;;;;5065918;28;20627;-83
2020/12/15 13:56:16;;;;;;;16.30;14.60;;;11.50;99.90;;;;;;5061350;28;20207;-83
2020/12/15 13:58:42;;;;;;;17.08;14.55;;;11.40;99.90;;;;;;5060389;28;20240;-83
2020/12/15 14:01:10;;;;;;;21.63;19.33;;;11.40;99.90;;;;;;5059266;28;20665;-82
2020/12/15 14:03:36;;;;;;;16.67;14.90;;;11.40;99.90;;;;;;5059188;28;20219;-83
2020/12/15 14:06:03;;;;;;;13.63;12.15;;;11.50;99.90;;;;;;5060636;28;20208;-83
2020/12/15 14:08:30;;;;;;;18.80;15.95;;;11.60;99.90;;;;;;5061465;28;20227;-84
2020/12/15 14:10:57;;;;;;;21.42;16.63;;;11.60;99.90;;;;;;5061234;28;20281;-82
2020/12/15 14:13:23;;;;;;;15.00;13.55;;;11.50;99.90;;;;;;5063105;28;20223;-83
2020/12/15 14:15:50;;;;;;;18.38;16.17;;;11.50;99.90;;;;;;5064547;28;20207;-82
2020/12/15 14:18:18;;;;;;;14.75;13.35;;;11.50;99.90;;;;;;5063539;28;20233;-83
2020/12/15 14:20:44;;;;;;;19.23;15.13;;;11.40;99.90;;;;;;5070387;28;20199;-83
2020/12/15 14:23:11;;;;;;;14.50;13.20;;;11.40;99.90;;;;;;5066405;28;20268;-84
2020/12/15 14:25:38;;;;;;;22.60;18.02;;;11.50;99.90;;;;;;5065067;28;20207;-82
2020/12/15 14:28:05;;;;;;;25.23;15.93;;;11.30;99.90;;;;;;5070149;28;20287;-82
2020/12/15 14:30:31;;;;;;;16.58;14.88;;;11.30;99.90;;;;;;5064177;28;20199;-82
2020/12/15 14:32:58;;;;;;;34.05;28.48;;;11.40;99.90;;;;;;5065129;28;20223;-84